Time,TemperatureF,DewpointF,PressureIn,WindDirection,WindDirectionDegrees,WindSpeedMPH,WindSpeedGustMPH,Humidity,HourlyPrecipIn,Conditions,Clouds,dailyrainin,SoftwareType,DateUTC
2013-08-14 00:00:00,52.0,-99.9,-100.00,North,-999,-999.0,-999.0,-999,-99.99,,,0.00,,2013-08-14 06:00:00,
2013-08-14 00:52:00,52.0,-99.9,-100.00,North,-999,-999.0,-999.0,-999,-99.99,,,0.00,,2013-08-14 06:52:00,
2013-08-14 01:00:00,52.0,-99.9,-100.00,North,-999,-999.0,-999.0,-999,-99.99,,,0.00,,2013-08-14 07:00:00,
2013-08-14 01:52:00,52.0,-99.9,-100.00,North,-999,-999.0,-999.0,-999,-99.99,,,0.00,,2013-08-14 07:52:00,
2013-08-14 02:00:00,51.0,48.0,-100.00,NNE,23,2.0,4.0,87,-99.99,,,0.00,,2013-08-14 08:00:00,
2013-08-14 02:52:00,51.0,48.0,-100.00,NNE,23,2.0,4.0,87,-99.99,,,0.00,,2013-08-14 08:52:00,
2013-08-14 04:00:00,48.0,45.0,-100.00,NNE,24,2.0,4.0,89,-99.99,,,0.00,,2013-08-14 10:00:00,
2013-08-14 04:52:00,48.0,45.0,-100.00,NNE,24,2.0,4.0,89,-99.99,,,0.00,,2013-08-14 10:52:00,
2013-08-14 05:00:00,47.0,45.0,-100.00,NNE,26,2.0,3.0,90,-99.99,,,0.00,,2013-08-14 11:00:00,
2013-08-14 05:52:00,47.0,45.0,-100.00,NNE,26,2.0,3.0,90,-99.99,,,0.00,,2013-08-14 11:52:00,
2013-08-14 07:00:00,49.0,43.0,-100.00,NNE,26,2.0,3.0,79,-99.99,,,-99.99,,2013-08-14 13:00:00,
2013-08-14 07:52:00,49.0,43.0,-100.00,NNE,26,2.0,3.0,79,-99.99,,,-99.99,,2013-08-14 13:52:00,
2013-08-14 08:00:00,52.0,46.0,-100.00,NNE,24,1.0,2.0,79,-99.99,,,0.00,,2013-08-14 14:00:00,
2013-08-14 08:52:00,52.0,46.0,-100.00,NNE,24,1.0,2.0,79,-99.99,,,0.00,,2013-08-14 14:52:00,
2013-08-14 10:00:00,59.0,49.0,-100.00,NNE,23,1.0,3.0,69,-99.99,,,0.00,,2013-08-14 16:00:00,
2013-08-14 13:00:00,64.0,42.0,-100.00,NE,46,1.0,4.0,44,-99.99,,,0.00,,2013-08-14 19:00:00,
2013-08-14 14:00:00,60.0,30.0,-100.00,ENE,62,2.0,5.0,31,-99.99,,,0.00,,2013-08-14 20:00:00,
2013-08-14 14:53:00,60.0,30.0,-100.00,ENE,62,2.0,5.0,31,-99.99,,,0.00,,2013-08-14 20:53:00,
2013-08-14 15:00:00,62.0,37.0,-100.00,NE,56,2.0,7.0,39,-99.99,,,0.00,,2013-08-14 21:00:00,
2013-08-14 15:55:00,62.0,37.0,-100.00,NE,56,2.0,7.0,39,-99.99,,,0.00,,2013-08-14 21:55:00,
2013-08-14 16:00:00,65.0,39.0,-100.00,NE,50,2.0,5.0,38,-99.99,,,-99.99,,2013-08-14 22:00:00,
2013-08-14 16:55:00,65.0,39.0,-100.00,NE,50,2.0,5.0,38,-99.99,,,-99.99,,2013-08-14 22:55:00,
2013-08-14 17:00:00,66.0,-99.9,-100.00,North,-999,-999.0,-999.0,-999,-99.99,,,-99.99,,2013-08-14 23:00:00,
2013-08-14 17:56:00,66.0,-99.9,-100.00,North,-999,-999.0,-999.0,-999,-99.99,,,-99.99,,2013-08-14 23:56:00,
2013-08-14 18:00:00,63.0,35.0,-100.00,ENE,65,1.0,4.0,35,-99.99,,,0.00,,2013-08-15 00:00:00,
2013-08-14 18:52:00,63.0,35.0,-100.00,ENE,65,1.0,4.0,35,-99.99,,,0.00,,2013-08-15 00:52:00,
2013-08-14 21:00:00,56.0,41.0,-100.00,NNE,25,2.0,4.0,57,-99.99,,,0.00,,2013-08-15 03:00:00,
2013-08-14 21:53:00,56.0,41.0,-100.00,NNE,25,2.0,4.0,57,-99.99,,,0.00,,2013-08-15 03:53:00,
2013-08-14 22:00:00,55.0,43.0,-100.00,NNE,25,3.0,4.0,65,-99.99,,,0.00,,2013-08-15 04:00:00,
2013-08-14 22:52:00,55.0,43.0,-100.00,NNE,25,3.0,4.0,65,-99.99,,,0.00,,2013-08-15 04:52:00,